sensor_id;sensor_type;location;lat;lon;timestamp;temperature;humidity
52030;DHT22;38043;53.224;6.580;2023-07-31T00:00:55;16.50;99.90
52030;DHT22;38043;53.224;6.580;2023-07-31T00:03:21;16.50;99.90
52030;DHT22;38043;53.224;6.580;2023-07-31T00:05:46;16.50;99.90
52030;DHT22;38043;53.224;6.580;2023-07-31T00:08:12;16.50;99.90
52030;DHT22;38043;53.224;6.580;2023-07-31T00:10:37;16.50;99.90
52030;DHT22;38043;53.224;6.580;2023-07-31T00:13:03;16.50;99.90
52030;DHT22;38043;53.224;6.580;2023-07-31T00:15:29;16.50;99.90
52030;DHT22;38043;53.224;6.580;2023-07-31T00:17:54;16.40;99.90
52030;DHT22;38043;53.224;6.580;2023-07-31T00:20:21;16.40;99.90
52030;DHT22;38043;53.224;6.580;2023-07-31T00:22:46;16.40;99.90
52030;DHT22;38043;53.224;6.580;2023-07-31T00:25:12;16.40;99.90
52030;DHT22;38043;53.224;6.580;2023-07-31T00:27:37;16.30;99.90
52030;DHT22;38043;53.224;6.580;2023-07-31T00:30:03;16.30;99.90
52030;DHT22;38043;53.224;6.580;2023-07-31T00:32:29;16.30;99.90
52030;DHT22;38043;53.224;6.580;2023-07-31T00:34:55;16.30;99.90
52030;DHT22;38043;53.224;6.580;2023-07-31T00:37:20;16.30;99.90
52030;DHT22;38043;53.224;6.580;2023-07-31T00:39:46;16.20;99.90
52030;DHT22;38043;53.224;6.580;2023-07-31T00:42:12;16.20;99.90
52030;DHT22;38043;53.224;6.580;2023-07-31T00:44:37;16.20;99.90
52030;DHT22;38043;53.224;6.580;2023-07-31T00:47:03;16.10;99.90
52030;DHT22;38043;53.224;6.580;2023-07-31T00:49:29;16.10;99.90
52030;DHT22;38043;53.224;6.580;2023-07-31T00:51:55;16.00;99.90
52030;DHT22;38043;53.224;6.580;2023-07-31T00:54:23;16.00;99.90
52030;DHT22;38043;53.224;6.580;2023-07-31T00:56:50;16.00;99.90
52030;DHT22;38043;53.224;6.580;2023-07-31T00:59:18;15.90;99.90
52030;DHT22;38043;53.224;6.580;2023-07-31T01:01:44;15.90;99.90
52030;DHT22;38043;53.224;6.580;2023-07-31T01:04:11;15.90;99.90
52030;DHT22;38043;53.224;6.580;2023-07-31T01:07:06;15.90;99.90
52030;DHT22;38043;53.224;6.580;2023-07-31T01:12:07;15.90;99.90
52030;DHT22;38043;53.224;6.580;2023-07-31T01:14:34;15.90;99.90
52030;DHT22;38043;53.224;6.580;2023-07-31T01:17:00;15.90;99.90
52030;DHT22;38043;53.224;6.580;2023-07-31T01:19:29;15.80;99.90
52030;DHT22;38043;53.224;6.580;2023-07-31T01:27:42;15.80;99.90
52030;DHT22;38043;53.224;6.580;2023-07-31T01:30:16;15.80;99.90
52030;DHT22;38043;53.224;6.580;2023-07-31T01:32:43;15.80;99.90
52030;DHT22;38043;53.224;6.580;2023-07-31T01:35:12;15.80;99.90
52030;DHT22;38043;53.224;6.580;2023-07-31T01:37:38;15.80;99.90
52030;DHT22;38043;53.224;6.580;2023-07-31T01:40:06;15.80;99.90
52030;DHT22;38043;53.224;6.580;2023-07-31T01:42:32;15.80;99.90
52030;DHT22;38043;53.224;6.580;2023-07-31T01:44:57;15.90;99.90
52030;DHT22;38043;53.224;6.580;2023-07-31T01:47:23;15.80;99.90
52030;DHT22;38043;53.224;6.580;2023-07-31T01:49:49;15.80;99.90
52030;DHT22;38043;53.224;6.580;2023-07-31T01:52:15;15.80;99.90
52030;DHT22;38043;53.224;6.580;2023-07-31T01:54:40;15.80;99.90
52030;DHT22;38043;53.224;6.580;2023-07-31T01:57:06;15.80;99.90
52030;DHT22;38043;53.224;6.580;2023-07-31T01:59:32;15.80;99.90
52030;DHT22;38043;53.224;6.580;2023-07-31T02:01:57;15.80;99.90
52030;DHT22;38043;53.224;6.580;2023-07-31T02:04:23;15.80;99.90
52030;DHT22;38043;53.224;6.580;2023-07-31T02:06:49;15.80;99.90
52030;DHT22;38043;53.224;6.580;2023-07-31T02:09:14;15.80;99.90
52030;DHT22;38043;53.224;6.580;2023-07-31T02:11:40;15.80;99.90
52030;DHT22;38043;53.224;6.580;2023-07-31T02:14:06;15.80;99.90
52030;DHT22;38043;53.224;6.580;2023-07-31T02:16:31;15.80;99.90
52030;DHT22;38043;53.224;6.580;2023-07-31T02:18:57;15.80;99.90
52030;DHT22;38043;53.224;6.580;2023-07-31T02:21:23;15.80;99.90
52030;DHT22;38043;53.224;6.580;2023-07-31T02:23:48;15.80;99.90
52030;DHT22;38043;53.224;6.580;2023-07-31T02:26:14;15.80;99.90
52030;DHT22;38043;53.224;6.580;2023-07-31T02:28:39;15.80;99.90
52030;DHT22;38043;53.224;6.580;2023-07-31T02:31:08;15.80;99.90
52030;DHT22;38043;53.224;6.580;2023-07-31T02:33:34;15.70;99.90
52030;DHT22;38043;53.224;6.580;2023-07-31T02:35:59;15.80;99.90
52030;DHT22;38043;53.224;6.580;2023-07-31T02:38:25;15.70;99.90
52030;DHT22;38043;53.224;6.580;2023-07-31T02:40:51;15.80;99.90
52030;DHT22;38043;53.224;6.580;2023-07-31T02:43:16;15.70;99.90
52030;DHT22;38043;53.224;6.580;2023-07-31T02:45:42;15.80;99.90
52030;DHT22;38043;53.224;6.580;2023-07-31T02:48:07;15.80;99.90
52030;DHT22;38043;53.224;6.580;2023-07-31T02:50:34;15.70;99.90
52030;DHT22;38043;53.224;6.580;2023-07-31T02:52:59;15.80;99.90
52030;DHT22;38043;53.224;6.580;2023-07-31T02:55:25;15.80;99.90
52030;DHT22;38043;53.224;6.580;2023-07-31T02:57:51;15.70;99.90
52030;DHT22;38043;53.224;6.580;2023-07-31T03:00:17;15.70;99.90
52030;DHT22;38043;53.224;6.580;2023-07-31T03:02:43;15.80;99.90
52030;DHT22;38043;53.224;6.580;2023-07-31T03:05:09;15.70;99.90
52030;DHT22;38043;53.224;6.580;2023-07-31T03:07:34;15.80;99.90
52030;DHT22;38043;53.224;6.580;2023-07-31T03:10:00;15.80;99.90
52030;DHT22;38043;53.224;6.580;2023-07-31T03:12:27;15.70;99.90
52030;DHT22;38043;53.224;6.580;2023-07-31T03:14:52;15.80;99.90
52030;DHT22;38043;53.224;6.580;2023-07-31T03:17:18;15.70;99.90
52030;DHT22;38043;53.224;6.580;2023-07-31T03:19:44;15.70;99.90
52030;DHT22;38043;53.224;6.580;2023-07-31T03:22:12;15.70;99.90
52030;DHT22;38043;53.224;6.580;2023-07-31T03:24:38;15.70;99.90
52030;DHT22;38043;53.224;6.580;2023-07-31T03:27:04;15.70;99.90
52030;DHT22;38043;53.224;6.580;2023-07-31T03:29:29;15.70;99.90
52030;DHT22;38043;53.224;6.580;2023-07-31T03:31:55;15.70;99.90
52030;DHT22;38043;53.224;6.580;2023-07-31T03:34:21;15.70;99.90
52030;DHT22;38043;53.224;6.580;2023-07-31T03:36:47;15.70;99.90
52030;DHT22;38043;53.224;6.580;2023-07-31T03:39:13;15.70;99.90
52030;DHT22;38043;53.224;6.580;2023-07-31T03:41:38;15.70;99.90
52030;DHT22;38043;53.224;6.580;2023-07-31T03:44:04;15.70;99.90
52030;DHT22;38043;53.224;6.580;2023-07-31T03:46:29;15.70;99.90
52030;DHT22;38043;53.224;6.580;2023-07-31T03:48:55;15.70;99.90
52030;DHT22;38043;53.224;6.580;2023-07-31T03:51:21;15.60;99.90
52030;DHT22;38043;53.224;6.580;2023-07-31T03:53:46;15.70;99.90
52030;DHT22;38043;53.224;6.580;2023-07-31T03:56:12;15.70;99.90
52030;DHT22;38043;53.224;6.580;2023-07-31T03:58:38;15.70;99.90
52030;DHT22;38043;53.224;6.580;2023-07-31T04:01:03;15.70;99.90
52030;DHT22;38043;53.224;6.580;2023-07-31T04:03:29;15.70;99.90
52030;DHT22;38043;53.224;6.580;2023-07-31T04:05:55;15.70;99.90
52030;DHT22;38043;53.224;6.580;2023-07-31T04:08:22;15.70;99.90
52030;DHT22;38043;53.224;6.580;2023-07-31T04:10:47;15.70;99.90
52030;DHT22;38043;53.224;6.580;2023-07-31T04:13:14;15.70;99.90
52030;DHT22;38043;53.224;6.580;2023-07-31T04:15:39;15.70;99.90
52030;DHT22;38043;53.224;6.580;2023-07-31T04:18:05;15.70;99.90
52030;DHT22;38043;53.224;6.580;2023-07-31T04:20:31;15.70;99.90
52030;DHT22;38043;53.224;6.580;2023-07-31T04:22:57;15.70;99.90
52030;DHT22;38043;53.224;6.580;2023-07-31T04:25:23;15.70;99.90
52030;DHT22;38043;53.224;6.580;2023-07-31T04:27:48;15.70;99.90
52030;DHT22;38043;53.224;6.580;2023-07-31T04:30:14;15.60;99.90
52030;DHT22;38043;53.224;6.580;2023-07-31T04:32:39;15.70;99.90
52030;DHT22;38043;53.224;6.580;2023-07-31T04:35:05;15.70;99.90
52030;DHT22;38043;53.224;6.580;2023-07-31T04:37:31;15.70;99.90
52030;DHT22;38043;53.224;6.580;2023-07-31T04:39:57;15.70;99.90
52030;DHT22;38043;53.224;6.580;2023-07-31T04:42:22;15.70;99.90
52030;DHT22;38043;53.224;6.580;2023-07-31T04:44:48;15.70;99.90
52030;DHT22;38043;53.224;6.580;2023-07-31T04:47:14;15.70;99.90
52030;DHT22;38043;53.224;6.580;2023-07-31T04:49:39;15.70;99.90
52030;DHT22;38043;53.224;6.580;2023-07-31T04:52:05;15.70;99.90
52030;DHT22;38043;53.224;6.580;2023-07-31T04:54:31;15.70;99.90
52030;DHT22;38043;53.224;6.580;2023-07-31T04:56:56;15.70;99.90
52030;DHT22;38043;53.224;6.580;2023-07-31T04:59:22;15.60;99.90
52030;DHT22;38043;53.224;6.580;2023-07-31T05:01:48;15.70;99.90
52030;DHT22;38043;53.224;6.580;2023-07-31T05:04:14;15.70;99.90
52030;DHT22;38043;53.224;6.580;2023-07-31T05:06:40;15.70;99.90
52030;DHT22;38043;53.224;6.580;2023-07-31T05:09:06;15.70;99.90
52030;DHT22;38043;53.224;6.580;2023-07-31T05:11:31;15.80;99.90
52030;DHT22;38043;53.224;6.580;2023-07-31T05:13:57;15.80;99.90
52030;DHT22;38043;53.224;6.580;2023-07-31T05:16:23;15.80;99.90
52030;DHT22;38043;53.224;6.580;2023-07-31T05:18:48;15.80;99.90
52030;DHT22;38043;53.224;6.580;2023-07-31T05:21:14;15.80;99.90
52030;DHT22;38043;53.224;6.580;2023-07-31T05:23:40;15.80;99.90
52030;DHT22;38043;53.224;6.580;2023-07-31T05:26:06;15.80;99.90
52030;DHT22;38043;53.224;6.580;2023-07-31T05:28:34;15.80;99.90
52030;DHT22;38043;53.224;6.580;2023-07-31T05:31:04;15.80;99.90
52030;DHT22;38043;53.224;6.580;2023-07-31T05:33:30;15.80;99.90
52030;DHT22;38043;53.224;6.580;2023-07-31T05:35:56;15.80;99.90
52030;DHT22;38043;53.224;6.580;2023-07-31T05:38:22;15.80;99.90
52030;DHT22;38043;53.224;6.580;2023-07-31T05:40:48;15.80;99.90
52030;DHT22;38043;53.224;6.580;2023-07-31T05:43:13;15.90;99.90
52030;DHT22;38043;53.224;6.580;2023-07-31T05:45:41;15.90;99.90
52030;DHT22;38043;53.224;6.580;2023-07-31T05:48:07;15.90;99.90
52030;DHT22;38043;53.224;6.580;2023-07-31T05:50:32;15.90;99.90
52030;DHT22;38043;53.224;6.580;2023-07-31T05:52:58;15.90;99.90
52030;DHT22;38043;53.224;6.580;2023-07-31T05:55:24;15.90;99.90
52030;DHT22;38043;53.224;6.580;2023-07-31T05:57:52;15.90;99.90
52030;DHT22;38043;53.224;6.580;2023-07-31T06:00:18;15.90;99.90
52030;DHT22;38043;53.224;6.580;2023-07-31T06:02:43;15.90;99.90
52030;DHT22;38043;53.224;6.580;2023-07-31T06:05:09;15.90;99.90
52030;DHT22;38043;53.224;6.580;2023-07-31T06:07:35;15.90;99.90
52030;DHT22;38043;53.224;6.580;2023-07-31T06:10:01;15.90;99.90
52030;DHT22;38043;53.224;6.580;2023-07-31T06:12:31;16.00;99.90
52030;DHT22;38043;53.224;6.580;2023-07-31T06:14:56;16.00;99.90
52030;DHT22;38043;53.224;6.580;2023-07-31T06:17:22;16.00;99.90
52030;DHT22;38043;53.224;6.580;2023-07-31T06:19:48;16.00;99.90
52030;DHT22;38043;53.224;6.580;2023-07-31T06:22:14;16.10;99.90
52030;DHT22;38043;53.224;6.580;2023-07-31T06:24:40;16.10;99.90
52030;DHT22;38043;53.224;6.580;2023-07-31T06:27:06;16.10;99.90
52030;DHT22;38043;53.224;6.580;2023-07-31T06:29:32;16.10;99.90
52030;DHT22;38043;53.224;6.580;2023-07-31T06:31:58;16.10;99.90
52030;DHT22;38043;53.224;6.580;2023-07-31T06:34:23;16.20;99.90
52030;DHT22;38043;53.224;6.580;2023-07-31T06:36:49;16.20;99.90
52030;DHT22;38043;53.224;6.580;2023-07-31T06:39:15;16.20;99.90
52030;DHT22;38043;53.224;6.580;2023-07-31T06:41:41;16.30;99.90
52030;DHT22;38043;53.224;6.580;2023-07-31T06:44:06;16.30;99.90
52030;DHT22;38043;53.224;6.580;2023-07-31T06:46:32;16.30;99.90
52030;DHT22;38043;53.224;6.580;2023-07-31T06:48:58;16.40;99.90
52030;DHT22;38043;53.224;6.580;2023-07-31T06:51:23;16.40;99.90
52030;DHT22;38043;53.224;6.580;2023-07-31T06:53:49;16.50;99.90
52030;DHT22;38043;53.224;6.580;2023-07-31T06:56:15;16.50;99.90
52030;DHT22;38043;53.224;6.580;2023-07-31T06:58:40;16.60;99.90
52030;DHT22;38043;53.224;6.580;2023-07-31T07:01:06;16.70;99.90
52030;DHT22;38043;53.224;6.580;2023-07-31T07:03:32;16.80;99.90
52030;DHT22;38043;53.224;6.580;2023-07-31T07:05:58;16.90;99.90
52030;DHT22;38043;53.224;6.580;2023-07-31T07:08:24;16.90;99.90
52030;DHT22;38043;53.224;6.580;2023-07-31T07:10:50;17.00;99.90
52030;DHT22;38043;53.224;6.580;2023-07-31T07:13:16;17.10;99.90
52030;DHT22;38043;53.224;6.580;2023-07-31T07:15:47;17.10;99.90
52030;DHT22;38043;53.224;6.580;2023-07-31T07:18:13;17.10;99.90
52030;DHT22;38043;53.224;6.580;2023-07-31T07:20:39;17.10;99.90
52030;DHT22;38043;53.224;6.580;2023-07-31T07:23:05;17.10;99.90
52030;DHT22;38043;53.224;6.580;2023-07-31T07:25:31;17.10;99.90
52030;DHT22;38043;53.224;6.580;2023-07-31T07:27:56;17.10;99.90
52030;DHT22;38043;53.224;6.580;2023-07-31T07:30:22;17.10;99.90
52030;DHT22;38043;53.224;6.580;2023-07-31T07:32:50;17.10;99.90
52030;DHT22;38043;53.224;6.580;2023-07-31T07:35:16;17.10;99.90
52030;DHT22;38043;53.224;6.580;2023-07-31T07:37:41;17.10;99.90
52030;DHT22;38043;53.224;6.580;2023-07-31T07:40:07;17.10;99.90
52030;DHT22;38043;53.224;6.580;2023-07-31T07:42:33;17.00;99.90
52030;DHT22;38043;53.224;6.580;2023-07-31T07:45:02;17.00;99.90
52030;DHT22;38043;53.224;6.580;2023-07-31T07:47:28;17.10;99.90
52030;DHT22;38043;53.224;6.580;2023-07-31T07:49:54;17.00;99.90
52030;DHT22;38043;53.224;6.580;2023-07-31T07:52:19;17.00;99.90
52030;DHT22;38043;53.224;6.580;2023-07-31T07:54:45;17.00;99.90
52030;DHT22;38043;53.224;6.580;2023-07-31T07:57:11;17.00;99.90
52030;DHT22;38043;53.224;6.580;2023-07-31T07:59:36;17.10;99.90
52030;DHT22;38043;53.224;6.580;2023-07-31T08:02:02;17.00;99.90
52030;DHT22;38043;53.224;6.580;2023-07-31T08:04:28;17.00;99.90
52030;DHT22;38043;53.224;6.580;2023-07-31T08:06:54;17.00;99.90
52030;DHT22;38043;53.224;6.580;2023-07-31T08:09:19;17.10;99.90
52030;DHT22;38043;53.224;6.580;2023-07-31T08:11:45;17.10;99.90
52030;DHT22;38043;53.224;6.580;2023-07-31T08:14:11;17.00;99.90
52030;DHT22;38043;53.224;6.580;2023-07-31T08:16:38;17.10;99.90
52030;DHT22;38043;53.224;6.580;2023-07-31T08:19:04;17.10;99.90
52030;DHT22;38043;53.224;6.580;2023-07-31T08:21:33;17.10;99.90
52030;DHT22;38043;53.224;6.580;2023-07-31T08:23:58;17.10;99.90
52030;DHT22;38043;53.224;6.580;2023-07-31T08:26:26;17.10;99.90
52030;DHT22;38043;53.224;6.580;2023-07-31T08:28:52;17.20;99.90
52030;DHT22;38043;53.224;6.580;2023-07-31T08:31:18;17.30;99.90
52030;DHT22;38043;53.224;6.580;2023-07-31T08:33:44;17.30;99.90
52030;DHT22;38043;53.224;6.580;2023-07-31T08:36:10;17.30;99.90
52030;DHT22;38043;53.224;6.580;2023-07-31T08:38:35;17.40;99.90
52030;DHT22;38043;53.224;6.580;2023-07-31T08:41:05;17.40;99.90
52030;DHT22;38043;53.224;6.580;2023-07-31T08:43:32;17.40;99.90
52030;DHT22;38043;53.224;6.580;2023-07-31T08:45:58;17.40;99.90
52030;DHT22;38043;53.224;6.580;2023-07-31T08:48:24;17.50;99.90
52030;DHT22;38043;53.224;6.580;2023-07-31T08:50:53;17.50;99.90
52030;DHT22;38043;53.224;6.580;2023-07-31T08:53:19;17.60;99.90
52030;DHT22;38043;53.224;6.580;2023-07-31T08:55:45;17.70;99.90
52030;DHT22;38043;53.224;6.580;2023-07-31T08:58:12;17.70;99.90
52030;DHT22;38043;53.224;6.580;2023-07-31T09:00:39;17.60;99.90
52030;DHT22;38043;53.224;6.580;2023-07-31T09:03:13;17.70;99.90
52030;DHT22;38043;53.224;6.580;2023-07-31T09:05:45;17.70;99.90
52030;DHT22;38043;53.224;6.580;2023-07-31T09:08:13;17.70;99.90
52030;DHT22;38043;53.224;6.580;2023-07-31T09:10:43;17.70;99.90
52030;DHT22;38043;53.224;6.580;2023-07-31T09:13:12;17.70;99.90
52030;DHT22;38043;53.224;6.580;2023-07-31T09:15:39;17.70;99.90
52030;DHT22;38043;53.224;6.580;2023-07-31T09:18:06;17.80;99.90
52030;DHT22;38043;53.224;6.580;2023-07-31T09:20:33;17.80;99.90
52030;DHT22;38043;53.224;6.580;2023-07-31T09:23:07;17.80;99.90
52030;DHT22;38043;53.224;6.580;2023-07-31T09:25:33;17.90;99.90
52030;DHT22;38043;53.224;6.580;2023-07-31T09:28:10;17.90;99.90
52030;DHT22;38043;53.224;6.580;2023-07-31T09:30:48;17.90;99.90
52030;DHT22;38043;53.224;6.580;2023-07-31T09:33:15;17.90;99.90
52030;DHT22;38043;53.224;6.580;2023-07-31T09:35:41;17.90;99.90
52030;DHT22;38043;53.224;6.580;2023-07-31T09:38:10;18.00;99.90
52030;DHT22;38043;53.224;6.580;2023-07-31T09:40:38;18.00;99.90
52030;DHT22;38043;53.224;6.580;2023-07-31T09:43:06;18.00;99.90
52030;DHT22;38043;53.224;6.580;2023-07-31T09:45:34;18.00;99.90
52030;DHT22;38043;53.224;6.580;2023-07-31T09:48:01;18.00;99.90
52030;DHT22;38043;53.224;6.580;2023-07-31T09:50:28;18.00;99.90
52030;DHT22;38043;53.224;6.580;2023-07-31T09:52:54;18.00;99.90
52030;DHT22;38043;53.224;6.580;2023-07-31T09:55:20;18.00;99.90
52030;DHT22;38043;53.224;6.580;2023-07-31T09:57:47;18.00;99.90
52030;DHT22;38043;53.224;6.580;2023-07-31T10:00:15;18.00;99.90
52030;DHT22;38043;53.224;6.580;2023-07-31T10:02:47;18.00;99.90
52030;DHT22;38043;53.224;6.580;2023-07-31T10:05:16;18.00;99.90
52030;DHT22;38043;53.224;6.580;2023-07-31T10:08:02;18.00;99.90
52030;DHT22;38043;53.224;6.580;2023-07-31T10:10:28;18.10;99.90
52030;DHT22;38043;53.224;6.580;2023-07-31T10:12:56;18.20;99.90
52030;DHT22;38043;53.224;6.580;2023-07-31T10:15:22;18.20;99.90
52030;DHT22;38043;53.224;6.580;2023-07-31T10:17:50;18.20;99.90
52030;DHT22;38043;53.224;6.580;2023-07-31T10:20:16;18.30;99.90
52030;DHT22;38043;53.224;6.580;2023-07-31T10:22:43;18.30;99.90
52030;DHT22;38043;53.224;6.580;2023-07-31T10:25:09;18.30;99.90
52030;DHT22;38043;53.224;6.580;2023-07-31T10:27:38;18.30;99.90
52030;DHT22;38043;53.224;6.580;2023-07-31T10:30:03;18.30;99.90
52030;DHT22;38043;53.224;6.580;2023-07-31T10:32:30;18.30;99.90
52030;DHT22;38043;53.224;6.580;2023-07-31T10:34:57;18.30;99.90
52030;DHT22;38043;53.224;6.580;2023-07-31T10:37:28;18.30;99.90
52030;DHT22;38043;53.224;6.580;2023-07-31T10:40:02;18.30;99.90
52030;DHT22;38043;53.224;6.580;2023-07-31T10:42:37;18.30;99.90
52030;DHT22;38043;53.224;6.580;2023-07-31T10:45:10;18.40;99.90
52030;DHT22;38043;53.224;6.580;2023-07-31T10:47:46;18.40;99.90
52030;DHT22;38043;53.224;6.580;2023-07-31T10:50:20;18.40;99.90
52030;DHT22;38043;53.224;6.580;2023-07-31T10:52:51;18.40;99.90
52030;DHT22;38043;53.224;6.580;2023-07-31T10:55:42;18.40;99.90
52030;DHT22;38043;53.224;6.580;2023-07-31T10:58:11;18.40;99.90
52030;DHT22;38043;53.224;6.580;2023-07-31T11:00:42;18.40;99.90
52030;DHT22;38043;53.224;6.580;2023-07-31T11:03:18;18.40;99.90
52030;DHT22;38043;53.224;6.580;2023-07-31T11:05:52;18.50;99.90
52030;DHT22;38043;53.224;6.580;2023-07-31T11:08:26;18.60;99.90
52030;DHT22;38043;53.224;6.580;2023-07-31T11:11:06;18.60;99.90
52030;DHT22;38043;53.224;6.580;2023-07-31T11:13:46;18.70;99.90
52030;DHT22;38043;53.224;6.580;2023-07-31T11:16:15;18.70;99.90
52030;DHT22;38043;53.224;6.580;2023-07-31T11:18:42;18.80;99.90
52030;DHT22;38043;53.224;6.580;2023-07-31T11:21:15;18.90;99.90
52030;DHT22;38043;53.224;6.580;2023-07-31T11:23:45;18.90;99.90
52030;DHT22;38043;53.224;6.580;2023-07-31T11:26:11;19.00;99.90
52030;DHT22;38043;53.224;6.580;2023-07-31T11:28:37;18.90;99.90
52030;DHT22;38043;53.224;6.580;2023-07-31T11:31:04;18.90;99.90
52030;DHT22;38043;53.224;6.580;2023-07-31T11:33:30;18.90;99.90
52030;DHT22;38043;53.224;6.580;2023-07-31T11:35:56;18.90;99.90
52030;DHT22;38043;53.224;6.580;2023-07-31T11:38:29;18.90;99.90
52030;DHT22;38043;53.224;6.580;2023-07-31T11:40:58;18.90;99.90
52030;DHT22;38043;53.224;6.580;2023-07-31T11:43:24;18.80;99.90
52030;DHT22;38043;53.224;6.580;2023-07-31T11:45:54;18.70;99.90
52030;DHT22;38043;53.224;6.580;2023-07-31T11:48:28;18.70;99.90
52030;DHT22;38043;53.224;6.580;2023-07-31T11:50:57;18.70;99.90
52030;DHT22;38043;53.224;6.580;2023-07-31T11:53:43;18.60;99.90
52030;DHT22;38043;53.224;6.580;2023-07-31T11:56:11;18.60;99.90
52030;DHT22;38043;53.224;6.580;2023-07-31T11:58:38;18.60;99.90
52030;DHT22;38043;53.224;6.580;2023-07-31T12:01:04;18.70;99.90
52030;DHT22;38043;53.224;6.580;2023-07-31T12:03:31;18.70;99.90
52030;DHT22;38043;53.224;6.580;2023-07-31T12:05:58;18.80;99.90
52030;DHT22;38043;53.224;6.580;2023-07-31T12:08:25;18.80;99.90
52030;DHT22;38043;53.224;6.580;2023-07-31T12:10:52;18.80;99.90
52030;DHT22;38043;53.224;6.580;2023-07-31T12:13:25;18.90;99.90
52030;DHT22;38043;53.224;6.580;2023-07-31T12:15:59;19.00;99.90
52030;DHT22;38043;53.224;6.580;2023-07-31T12:18:27;19.00;99.90
52030;DHT22;38043;53.224;6.580;2023-07-31T12:20:58;19.10;99.90
52030;DHT22;38043;53.224;6.580;2023-07-31T12:23:27;19.10;99.90
52030;DHT22;38043;53.224;6.580;2023-07-31T12:26:12;19.20;99.90
52030;DHT22;38043;53.224;6.580;2023-07-31T12:28:49;19.20;99.90
52030;DHT22;38043;53.224;6.580;2023-07-31T12:31:16;19.20;99.90
52030;DHT22;38043;53.224;6.580;2023-07-31T12:33:46;19.20;99.90
52030;DHT22;38043;53.224;6.580;2023-07-31T12:36:18;19.10;99.90
52030;DHT22;38043;53.224;6.580;2023-07-31T12:38:44;19.10;99.90
52030;DHT22;38043;53.224;6.580;2023-07-31T12:41:10;19.10;99.90
52030;DHT22;38043;53.224;6.580;2023-07-31T12:43:38;19.10;99.90
52030;DHT22;38043;53.224;6.580;2023-07-31T12:46:04;19.10;99.90
52030;DHT22;38043;53.224;6.580;2023-07-31T12:48:31;19.10;99.90
52030;DHT22;38043;53.224;6.580;2023-07-31T12:50:57;19.10;99.90
52030;DHT22;38043;53.224;6.580;2023-07-31T12:53:23;19.20;99.90
52030;DHT22;38043;53.224;6.580;2023-07-31T12:55:49;19.20;99.90
52030;DHT22;38043;53.224;6.580;2023-07-31T12:58:14;19.30;99.90
52030;DHT22;38043;53.224;6.580;2023-07-31T13:00:40;19.30;99.90
52030;DHT22;38043;53.224;6.580;2023-07-31T13:03:06;19.30;99.90
52030;DHT22;38043;53.224;6.580;2023-07-31T13:05:31;19.20;99.90
52030;DHT22;38043;53.224;6.580;2023-07-31T13:07:57;19.20;99.90
52030;DHT22;38043;53.224;6.580;2023-07-31T13:10:23;19.20;99.90
52030;DHT22;38043;53.224;6.580;2023-07-31T13:12:49;19.10;99.90
52030;DHT22;38043;53.224;6.580;2023-07-31T13:15:15;19.20;99.90
52030;DHT22;38043;53.224;6.580;2023-07-31T13:17:41;19.30;99.90
52030;DHT22;38043;53.224;6.580;2023-07-31T13:20:07;19.30;99.90
52030;DHT22;38043;53.224;6.580;2023-07-31T13:22:33;19.30;99.90
52030;DHT22;38043;53.224;6.580;2023-07-31T13:24:59;19.20;99.90
52030;DHT22;38043;53.224;6.580;2023-07-31T13:27:24;19.30;99.90
52030;DHT22;38043;53.224;6.580;2023-07-31T13:29:51;19.30;99.90
52030;DHT22;38043;53.224;6.580;2023-07-31T13:32:18;19.40;99.90
52030;DHT22;38043;53.224;6.580;2023-07-31T13:34:45;19.40;99.90
52030;DHT22;38043;53.224;6.580;2023-07-31T13:37:11;19.50;99.90
52030;DHT22;38043;53.224;6.580;2023-07-31T13:39:36;19.40;99.90
52030;DHT22;38043;53.224;6.580;2023-07-31T13:42:03;19.40;99.90
52030;DHT22;38043;53.224;6.580;2023-07-31T13:44:32;19.40;99.90
52030;DHT22;38043;53.224;6.580;2023-07-31T13:46:57;19.40;99.90
52030;DHT22;38043;53.224;6.580;2023-07-31T13:49:23;19.40;99.90
52030;DHT22;38043;53.224;6.580;2023-07-31T13:51:48;19.40;99.90
52030;DHT22;38043;53.224;6.580;2023-07-31T13:54:14;19.40;99.90
52030;DHT22;38043;53.224;6.580;2023-07-31T13:56:41;19.60;99.90
52030;DHT22;38043;53.224;6.580;2023-07-31T13:59:06;19.70;99.90
52030;DHT22;38043;53.224;6.580;2023-07-31T14:01:32;19.70;99.90
52030;DHT22;38043;53.224;6.580;2023-07-31T14:03:58;19.80;99.90
52030;DHT22;38043;53.224;6.580;2023-07-31T14:06:24;19.90;99.90
52030;DHT22;38043;53.224;6.580;2023-07-31T14:08:49;20.10;99.90
52030;DHT22;38043;53.224;6.580;2023-07-31T14:11:15;20.10;99.90
52030;DHT22;38043;53.224;6.580;2023-07-31T14:13:41;20.10;99.90
52030;DHT22;38043;53.224;6.580;2023-07-31T14:16:06;20.00;99.90
52030;DHT22;38043;53.224;6.580;2023-07-31T14:18:32;20.00;99.90
52030;DHT22;38043;53.224;6.580;2023-07-31T14:20:58;19.90;99.90
52030;DHT22;38043;53.224;6.580;2023-07-31T14:23:23;19.80;99.90
52030;DHT22;38043;53.224;6.580;2023-07-31T14:25:49;19.80;99.90
52030;DHT22;38043;53.224;6.580;2023-07-31T14:28:15;19.70;99.90
52030;DHT22;38043;53.224;6.580;2023-07-31T14:30:40;19.60;99.90
52030;DHT22;38043;53.224;6.580;2023-07-31T14:33:06;19.60;99.90
52030;DHT22;38043;53.224;6.580;2023-07-31T14:35:33;19.60;99.90
52030;DHT22;38043;53.224;6.580;2023-07-31T14:37:59;19.60;99.90
52030;DHT22;38043;53.224;6.580;2023-07-31T14:40:24;19.70;99.90
52030;DHT22;38043;53.224;6.580;2023-07-31T14:42:50;19.70;99.90
52030;DHT22;38043;53.224;6.580;2023-07-31T14:45:15;19.70;99.90
52030;DHT22;38043;53.224;6.580;2023-07-31T14:47:41;19.80;99.90
52030;DHT22;38043;53.224;6.580;2023-07-31T14:50:08;19.80;99.90
52030;DHT22;38043;53.224;6.580;2023-07-31T14:52:34;19.70;99.90
52030;DHT22;38043;53.224;6.580;2023-07-31T14:55:03;19.80;99.90
52030;DHT22;38043;53.224;6.580;2023-07-31T14:57:29;19.70;99.90
52030;DHT22;38043;53.224;6.580;2023-07-31T14:59:54;19.70;99.90
52030;DHT22;38043;53.224;6.580;2023-07-31T15:02:20;19.70;99.90
52030;DHT22;38043;53.224;6.580;2023-07-31T15:04:45;19.60;99.90
52030;DHT22;38043;53.224;6.580;2023-07-31T15:07:11;19.60;99.90
52030;DHT22;38043;53.224;6.580;2023-07-31T15:09:39;19.50;99.90
52030;DHT22;38043;53.224;6.580;2023-07-31T15:12:05;19.50;99.90
52030;DHT22;38043;53.224;6.580;2023-07-31T15:14:31;19.50;99.90
52030;DHT22;38043;53.224;6.580;2023-07-31T15:16:57;19.50;99.90
52030;DHT22;38043;53.224;6.580;2023-07-31T15:19:22;19.50;99.90
52030;DHT22;38043;53.224;6.580;2023-07-31T15:21:51;19.40;99.90
52030;DHT22;38043;53.224;6.580;2023-07-31T15:24:17;19.50;99.90
52030;DHT22;38043;53.224;6.580;2023-07-31T15:26:42;19.40;99.90
52030;DHT22;38043;53.224;6.580;2023-07-31T15:29:08;19.40;99.90
52030;DHT22;38043;53.224;6.580;2023-07-31T15:31:41;19.40;99.90
52030;DHT22;38043;53.224;6.580;2023-07-31T15:34:07;19.40;99.90
52030;DHT22;38043;53.224;6.580;2023-07-31T15:36:33;19.40;99.90